createdAt,value
2018-12-09T00:00:45.865Z,77.04
2018-12-09T00:03:13.506Z,77.63
2018-12-09T00:05:41.084Z,78.36
2018-12-09T00:08:08.681Z,78.11
2018-12-09T00:10:36.436Z,78.73
2018-12-09T00:13:04.087Z,79.51
2018-12-09T00:15:31.752Z,79.62
2018-12-09T00:17:59.415Z,80.28
2018-12-09T00:20:27.093Z,80.67
2018-12-09T00:22:54.748Z,81.70
2018-12-09T00:25:22.421Z,81.29
2018-12-09T00:27:50.035Z,82.70
2018-12-09T00:30:17.626Z,82.41
2018-12-09T00:32:45.300Z,83.00
2018-12-09T00:35:12.959Z,83.24
2018-12-09T00:37:40.626Z,83.71
2018-12-09T00:40:08.281Z,83.32
2018-12-09T00:42:43.291Z,84.06
2018-12-09T00:45:06.076Z,83.69
2018-12-09T00:47:33.656Z,84.55
2018-12-09T00:50:01.303Z,85.19
2018-12-09T00:52:28.951Z,85.15
2018-12-09T00:54:56.610Z,85.86
2018-12-09T00:57:24.258Z,85.93
2018-12-09T00:59:51.940Z,85.62
2018-12-09T01:02:19.600Z,85.70
2018-12-09T01:04:47.263Z,86.46
2018-12-09T01:07:14.928Z,86.08
2018-12-09T01:09:42.597Z,86.18
2018-12-09T01:12:10.248Z,86.60
2018-12-09T01:14:37.924Z,86.67
2018-12-09T01:17:05.575Z,86.57
2018-12-09T01:19:33.247Z,87.22
2018-12-09T01:22:01.544Z,86.94
2018-12-09T01:24:29.188Z,87.00
2018-12-09T01:26:56.816Z,87.50
2018-12-09T01:29:24.517Z,87.48
2018-12-09T01:31:52.181Z,87.06
2018-12-09T01:34:19.844Z,87.54
2018-12-09T01:36:47.500Z,87.33
2018-12-09T01:39:15.516Z,86.81
2018-12-09T01:41:43.137Z,87.15
2018-12-09T01:44:10.730Z,86.83
2018-12-09T01:46:38.363Z,86.92
2018-12-09T01:49:05.952Z,87.15
2018-12-09T01:51:33.580Z,87.27
2018-12-09T01:54:08.626Z,86.67
2018-12-09T01:56:36.812Z,86.75
2018-12-09T01:59:04.460Z,87.28
2018-12-09T02:01:32.112Z,87.29
2018-12-09T02:03:59.780Z,87.29
2018-12-09T02:06:27.419Z,87.19
2018-12-09T02:08:55.108Z,86.73
2018-12-09T02:11:22.759Z,86.83
2018-12-09T02:13:50.434Z,86.69
2018-12-09T02:16:18.096Z,86.27
2018-12-09T02:18:47.913Z,86.46
2018-12-09T02:21:15.563Z,86.41
2018-12-09T02:23:43.227Z,86.68
2018-12-09T02:26:10.895Z,86.03
2018-12-09T02:28:38.661Z,86.28
2018-12-09T02:31:06.325Z,86.35
2018-12-09T02:33:34.009Z,86.35
2018-12-09T02:36:01.641Z,86.29
2018-12-09T02:38:44.060Z,86.29
2018-12-09T02:41:11.722Z,85.93
2018-12-09T02:43:39.383Z,86.78
2018-12-09T02:46:07.055Z,86.45
2018-12-09T02:48:34.803Z,86.79
2018-12-09T02:51:02.893Z,86.28
2018-12-09T02:53:30.649Z,86.05
2018-12-09T02:55:58.324Z,86.32
2018-12-09T02:58:25.976Z,87.03
2018-12-09T03:00:53.650Z,86.93
2018-12-09T03:03:21.310Z,87.18
2018-12-09T03:05:48.955Z,86.63
2018-12-09T03:08:16.636Z,86.37
2018-12-09T03:10:44.223Z,86.93
2018-12-09T03:13:11.819Z,86.60
2018-12-09T03:15:39.512Z,86.11
2018-12-09T03:18:07.176Z,86.83
2018-12-09T03:20:34.836Z,86.13
2018-12-09T03:23:02.500Z,86.37
2018-12-09T03:25:30.164Z,86.60
2018-12-09T03:27:57.826Z,86.08
2018-12-09T03:30:25.492Z,86.09
2018-12-09T03:32:53.163Z,86.62
2018-12-09T03:35:20.776Z,86.65
2018-12-09T03:37:48.360Z,86.71
2018-12-09T03:40:15.990Z,86.22
2018-12-09T03:42:43.567Z,86.06
2018-12-09T03:45:11.361Z,86.75
2018-12-09T03:47:39.019Z,86.36
2018-12-09T03:50:07.512Z,86.32
2018-12-09T03:52:35.167Z,86.43
2018-12-09T03:55:02.836Z,86.50
2018-12-09T03:57:30.491Z,86.34
2018-12-09T03:59:58.091Z,86.00
2018-12-09T04:02:25.714Z,85.74
2018-12-09T04:04:53.384Z,85.83
2018-12-09T04:07:21.046Z,86.25
2018-12-09T04:09:48.709Z,85.93
2018-12-09T04:12:16.384Z,86.31
2018-12-09T04:14:43.965Z,85.91
2018-12-09T04:17:11.590Z,86.37
2018-12-09T04:19:39.168Z,85.83
2018-12-09T04:22:06.821Z,85.78
2018-12-09T04:24:34.479Z,85.88
2018-12-09T04:27:02.140Z,86.05
2018-12-09T04:29:29.808Z,85.31
2018-12-09T04:31:57.480Z,85.66
2018-12-09T04:34:25.133Z,86.18
2018-12-09T04:36:52.788Z,86.27
2018-12-09T04:39:20.460Z,85.73
2018-12-09T04:41:48.130Z,85.47
2018-12-09T04:44:15.794Z,86.08
2018-12-09T04:46:43.399Z,85.58
2018-12-09T04:49:11.004Z,86.08
2018-12-09T04:51:50.870Z,85.77
2018-12-09T04:54:18.460Z,86.09
2018-12-09T04:56:46.071Z,85.58
2018-12-09T04:59:17.223Z,85.99
2018-12-09T05:01:45.500Z,85.79
2018-12-09T05:04:13.184Z,86.79
2018-12-09T05:06:40.835Z,85.75
2018-12-09T05:09:08.499Z,86.11
2018-12-09T05:11:36.152Z,86.29
2018-12-09T05:14:04.196Z,85.93
2018-12-09T05:16:31.806Z,86.52
2018-12-09T05:18:59.449Z,86.88
2018-12-09T05:21:27.051Z,86.91
2018-12-09T05:23:54.671Z,86.59
2018-12-09T05:26:22.635Z,87.14
2018-12-09T05:28:50.308Z,86.74
2018-12-09T05:31:17.958Z,87.21
2018-12-09T05:33:45.627Z,86.23
2018-12-09T05:36:13.302Z,85.65
2018-12-09T05:38:41.477Z,85.40
2018-12-09T05:41:09.123Z,84.87
2018-12-09T05:43:36.793Z,83.94
2018-12-09T05:46:04.377Z,84.17
2018-12-09T05:48:32.024Z,84.12
2018-12-09T05:51:00.292Z,83.81
2018-12-09T05:53:27.957Z,83.69
2018-12-09T05:55:55.615Z,83.13
2018-12-09T05:58:25.158Z,83.28
2018-12-09T06:00:52.739Z,84.33
2018-12-09T06:03:20.817Z,84.39
2018-12-09T06:05:48.515Z,84.77
2018-12-09T06:08:16.180Z,85.12
2018-12-09T06:10:43.848Z,86.06
2018-12-09T06:13:11.461Z,86.35
2018-12-09T06:15:39.480Z,86.92
2018-12-09T06:18:07.143Z,86.75
2018-12-09T06:20:34.899Z,87.10
2018-12-09T06:23:02.568Z,87.13
2018-12-09T06:25:30.240Z,87.33
2018-12-09T06:27:58.407Z,87.50
2018-12-09T06:30:26.081Z,87.62
2018-12-09T06:32:53.730Z,88.07
2018-12-09T06:35:21.405Z,87.76
2018-12-09T06:37:49.060Z,87.68
2018-12-09T06:40:16.680Z,88.40
2018-12-09T06:42:44.384Z,88.04
2018-12-09T06:45:12.062Z,88.11
2018-12-09T06:47:39.708Z,88.11
2018-12-09T06:50:07.359Z,88.37
2018-12-09T06:52:35.045Z,88.88
2018-12-09T06:55:02.644Z,88.61
2018-12-09T06:57:30.264Z,88.28
2018-12-09T06:59:57.863Z,88.25
2018-12-09T07:02:25.493Z,88.28
2018-12-09T07:04:53.154Z,88.71
2018-12-09T07:07:21.215Z,88.55
2018-12-09T07:09:48.876Z,88.88
2018-12-09T07:12:16.521Z,89.16
2018-12-09T07:14:44.207Z,88.63
2018-12-09T07:17:11.821Z,88.84
2018-12-09T07:19:39.403Z,88.58
2018-12-09T07:22:07.090Z,89.02
2018-12-09T07:24:34.850Z,89.19
2018-12-09T07:27:02.515Z,89.30
2018-12-09T07:29:30.186Z,88.72
2018-12-09T07:31:57.857Z,89.56
2018-12-09T07:34:25.503Z,88.69
2018-12-09T07:36:53.116Z,88.79
2018-12-09T07:39:20.736Z,88.72
2018-12-09T07:41:48.405Z,88.89
2018-12-09T07:44:16.152Z,88.38
2018-12-09T07:46:43.923Z,88.70
2018-12-09T07:49:11.598Z,88.29
2018-12-09T07:51:39.203Z,88.25
2018-12-09T07:54:06.907Z,88.47
2018-12-09T07:56:34.585Z,87.73
2018-12-09T07:59:02.163Z,87.94
2018-12-09T08:01:29.805Z,88.18
2018-12-09T08:03:57.443Z,87.29
2018-12-09T08:06:25.015Z,87.14
2018-12-09T08:08:52.701Z,87.44
2018-12-09T08:11:20.354Z,87.02
2018-12-09T08:13:48.012Z,86.69
2018-12-09T08:16:15.675Z,86.60
2018-12-09T08:18:43.331Z,86.54
2018-12-09T08:21:10.910Z,86.84
2018-12-09T08:23:38.559Z,86.51
2018-12-09T08:26:06.219Z,86.54
2018-12-09T08:28:33.889Z,86.91
2018-12-09T08:31:01.548Z,85.70
2018-12-09T08:33:29.225Z,85.96
2018-12-09T08:35:56.878Z,85.74
2018-12-09T08:38:24.540Z,85.27
2018-12-09T08:40:52.210Z,85.02
2018-12-09T08:43:19.864Z,84.65
2018-12-09T08:45:47.534Z,85.30
2018-12-09T08:48:15.129Z,85.42
2018-12-09T08:50:42.747Z,84.95
2018-12-09T08:53:10.414Z,85.25
2018-12-09T08:55:38.067Z,85.15
2018-12-09T08:58:05.745Z,85.21
2018-12-09T09:00:33.409Z,84.91
2018-12-09T09:03:01.164Z,84.92
2018-12-09T09:05:28.771Z,84.61
2018-12-09T09:07:56.361Z,84.37
2018-12-09T09:10:23.960Z,84.68
2018-12-09T09:12:51.547Z,84.69
2018-12-09T09:15:19.143Z,84.87
2018-12-09T09:17:46.741Z,84.80
2018-12-09T09:20:14.407Z,84.51
2018-12-09T09:22:42.060Z,84.62
2018-12-09T09:25:09.713Z,84.92
2018-12-09T09:27:37.342Z,84.13
2018-12-09T09:30:06.276Z,84.16
2018-12-09T09:32:33.855Z,84.44
2018-12-09T09:35:01.502Z,84.23
2018-12-09T09:37:29.128Z,84.44
2018-12-09T09:39:56.824Z,84.21
2018-12-09T09:42:24.493Z,83.71
2018-12-09T09:44:52.144Z,84.69
2018-12-09T09:47:19.739Z,84.40
2018-12-09T09:49:47.466Z,83.82
2018-12-09T09:52:15.147Z,84.44
2018-12-09T09:54:42.724Z,84.51
2018-12-09T09:57:10.319Z,84.22
2018-12-09T09:59:38.034Z,84.25
2018-12-09T10:02:05.679Z,83.95
2018-12-09T10:04:33.346Z,83.26
2018-12-09T10:07:01.012Z,83.65
2018-12-09T10:09:28.987Z,83.86
2018-12-09T10:11:56.943Z,84.06
2018-12-09T10:14:24.616Z,83.76
2018-12-09T10:16:52.276Z,83.58
2018-12-09T10:19:19.950Z,83.86
2018-12-09T10:21:47.549Z,83.73
2018-12-09T10:24:15.127Z,83.18
2018-12-09T10:26:42.718Z,83.62
2018-12-09T10:29:10.387Z,82.67
2018-12-09T10:31:38.048Z,82.54
2018-12-09T10:34:05.727Z,82.82
2018-12-09T10:36:33.377Z,82.87
2018-12-09T10:39:01.654Z,83.37
2018-12-09T10:41:29.263Z,82.70
2018-12-09T10:43:57.071Z,83.45
2018-12-09T10:46:25.042Z,83.42
2018-12-09T10:48:52.821Z,82.66
2018-12-09T10:51:20.674Z,82.19
2018-12-09T10:53:48.644Z,82.29
2018-12-09T10:56:16.512Z,82.08
2018-12-09T10:58:44.328Z,82.42
2018-12-09T11:01:17.982Z,81.61
2018-12-09T11:03:45.938Z,81.94
2018-12-09T11:06:14.480Z,81.99
2018-12-09T11:08:42.404Z,82.25
2018-12-09T11:11:10.180Z,82.13
2018-12-09T11:13:37.934Z,81.58
2018-12-09T11:16:05.650Z,81.69
2018-12-09T11:18:33.360Z,81.89
2018-12-09T11:21:01.039Z,81.57
2018-12-09T11:23:28.664Z,80.90
2018-12-09T11:25:56.269Z,80.44
2018-12-09T11:28:23.933Z,80.62
2018-12-09T11:30:51.585Z,80.24
2018-12-09T11:33:19.357Z,80.37
2018-12-09T11:35:47.025Z,80.29
2018-12-09T11:38:14.692Z,80.37
2018-12-09T11:40:42.276Z,80.19
2018-12-09T11:43:09.879Z,80.23
2018-12-09T11:45:37.560Z,79.85
2018-12-09T11:48:05.225Z,80.19
2018-12-09T11:50:32.879Z,79.80
2018-12-09T11:53:00.545Z,80.40
2018-12-09T11:55:28.306Z,80.62
2018-12-09T11:57:55.975Z,80.32
2018-12-09T12:00:23.640Z,80.83
2018-12-09T12:02:51.296Z,80.41
2018-12-09T12:05:18.931Z,80.88
2018-12-09T12:07:46.768Z,80.88
2018-12-09T12:10:14.404Z,80.72
2018-12-09T12:12:42.065Z,80.83
2018-12-09T12:15:09.720Z,80.35
2018-12-09T12:17:37.389Z,80.75
2018-12-09T12:20:07.012Z,80.61
2018-12-09T12:22:34.747Z,81.46
2018-12-09T12:25:02.434Z,80.48
2018-12-09T12:27:30.022Z,80.77
2018-12-09T12:29:57.850Z,80.11
2018-12-09T12:32:25.668Z,79.91
2018-12-09T12:34:53.268Z,80.21
2018-12-09T12:37:20.858Z,79.27
2018-12-09T12:39:48.591Z,79.51
2018-12-09T12:42:16.277Z,79.96
2018-12-09T12:44:43.929Z,80.46
2018-12-09T12:47:11.561Z,81.19
2018-12-09T12:49:39.220Z,82.05
2018-12-09T12:52:06.839Z,81.93
2018-12-09T12:54:34.512Z,83.15
2018-12-09T12:57:02.094Z,83.20
2018-12-09T12:59:29.677Z,83.25
2018-12-09T13:01:57.361Z,83.41
2018-12-09T13:04:24.979Z,83.42
2018-12-09T13:06:53.102Z,83.92
2018-12-09T13:09:20.765Z,84.57
2018-12-09T13:11:48.433Z,84.05
2018-12-09T13:14:16.093Z,83.67
2018-12-09T13:16:43.761Z,84.56
2018-12-09T13:19:11.539Z,84.04
2018-12-09T13:21:39.379Z,83.84
2018-12-09T13:24:07.151Z,83.77
2018-12-09T13:26:34.912Z,84.31
2018-12-09T13:29:02.487Z,83.25
2018-12-09T13:31:30.089Z,83.12
2018-12-09T13:33:57.690Z,83.29
2018-12-09T13:36:25.356Z,82.76
2018-12-09T13:38:52.928Z,82.29
2018-12-09T13:41:20.581Z,82.15
2018-12-09T13:43:48.217Z,81.80
2018-12-09T13:46:15.909Z,81.95
2018-12-09T13:48:43.572Z,81.36
2018-12-09T13:51:11.232Z,80.91
2018-12-09T13:53:38.902Z,81.12
2018-12-09T13:56:06.655Z,80.87
2018-12-09T13:58:36.641Z,80.71
2018-12-09T14:01:04.336Z,80.57
2018-12-09T14:03:32.104Z,80.11
2018-12-09T14:05:59.864Z,80.33
2018-12-09T14:08:27.527Z,80.57
2018-12-09T14:10:55.152Z,80.40
2018-12-09T14:13:22.921Z,80.83
2018-12-09T14:15:50.625Z,80.67
2018-12-09T14:18:18.283Z,80.88
2018-12-09T14:20:45.968Z,80.68
2018-12-09T14:23:13.623Z,81.18
2018-12-09T14:25:41.290Z,81.56
2018-12-09T14:28:08.915Z,81.24
2018-12-09T14:30:36.755Z,81.91
2018-12-09T14:33:04.587Z,82.20
2018-12-09T14:35:32.243Z,81.40
2018-12-09T14:37:59.886Z,82.01
2018-12-09T14:40:27.463Z,81.61
2018-12-09T14:42:55.186Z,81.97
2018-12-09T14:45:22.945Z,82.21
2018-12-09T14:47:50.549Z,81.96
2018-12-09T14:50:18.265Z,82.63
2018-12-09T14:52:46.574Z,82.82
2018-12-09T14:55:14.283Z,82.05
2018-12-09T14:57:41.880Z,82.24
2018-12-09T15:00:09.517Z,82.06
2018-12-09T15:02:37.232Z,82.29
2018-12-09T15:05:05.416Z,82.08
2018-12-09T15:07:33.173Z,82.49
2018-12-09T15:10:08.455Z,82.52
2018-12-09T15:12:30.736Z,82.55
2018-12-09T15:14:58.394Z,82.46
2018-12-09T15:17:26.280Z,82.91
2018-12-09T15:19:53.956Z,82.83
2018-12-09T15:22:21.811Z,82.87
2018-12-09T15:24:49.445Z,83.14
2018-12-09T15:27:17.041Z,83.59
2018-12-09T15:29:45.627Z,83.22
2018-12-09T15:32:13.292Z,83.65
2018-12-09T15:34:40.952Z,84.11
2018-12-09T15:37:08.626Z,83.42
2018-12-09T15:39:36.277Z,83.97
2018-12-09T15:42:04.053Z,83.96
2018-12-09T15:44:31.807Z,83.69
2018-12-09T15:47:00.904Z,83.38
2018-12-09T15:49:28.568Z,83.53
2018-12-09T15:51:56.144Z,83.59
2018-12-09T15:54:23.994Z,83.97
2018-12-09T15:56:51.673Z,84.48
2018-12-09T15:59:20.840Z,85.00
2018-12-09T16:01:48.731Z,84.94
2018-12-09T16:04:16.606Z,84.86
2018-12-09T16:06:44.179Z,84.93
2018-12-09T16:09:11.933Z,85.28
2018-12-09T16:11:39.574Z,84.75
2018-12-09T16:14:07.248Z,85.19
2018-12-09T16:16:34.839Z,85.18
2018-12-09T16:19:02.501Z,85.60
2018-12-09T16:21:30.135Z,85.49
2018-12-09T16:23:57.761Z,85.46
2018-12-09T16:26:25.451Z,85.18
2018-12-09T16:28:53.126Z,85.35
2018-12-09T16:31:20.780Z,85.88
2018-12-09T16:33:48.453Z,85.79
2018-12-09T16:36:16.099Z,85.50
2018-12-09T16:38:43.768Z,86.02
2018-12-09T16:41:11.372Z,86.28
2018-12-09T16:43:38.996Z,86.30
2018-12-09T16:46:06.756Z,85.93
2018-12-09T16:48:34.429Z,86.46
2018-12-09T16:51:02.087Z,86.40
2018-12-09T16:53:29.743Z,86.03
2018-12-09T16:55:57.403Z,86.28
2018-12-09T16:58:25.063Z,85.81
2018-12-09T17:00:52.696Z,85.19
2018-12-09T17:03:20.272Z,85.00
2018-12-09T17:05:47.965Z,85.02
2018-12-09T17:08:15.625Z,85.39
2018-12-09T17:10:43.198Z,85.45
2018-12-09T17:13:10.844Z,84.92
2018-12-09T17:15:38.516Z,84.80
2018-12-09T17:18:06.168Z,85.62
2018-12-09T17:20:33.838Z,85.66
2018-12-09T17:23:01.496Z,85.21
2018-12-09T17:25:29.156Z,86.01
2018-12-09T17:27:56.829Z,86.33
2018-12-09T17:30:24.497Z,85.58
2018-12-09T17:32:52.101Z,85.99
2018-12-09T17:35:19.671Z,86.10
2018-12-09T17:37:47.677Z,85.80
2018-12-09T17:40:15.328Z,85.46
2018-12-09T17:42:43.014Z,85.15
2018-12-09T17:45:10.663Z,85.37
2018-12-09T17:47:38.527Z,85.63
2018-12-09T17:50:07.732Z,85.17
2018-12-09T17:52:35.400Z,85.24
2018-12-09T17:55:02.975Z,85.35
2018-12-09T17:57:30.582Z,84.90
2018-12-09T17:59:58.169Z,84.83
2018-12-09T18:02:25.771Z,84.24
2018-12-09T18:04:53.410Z,83.72
2018-12-09T18:07:20.992Z,83.69
2018-12-09T18:09:48.623Z,83.84
2018-12-09T18:12:16.207Z,83.91
2018-12-09T18:14:43.803Z,83.69
2018-12-09T18:17:11.384Z,83.79
2018-12-09T18:19:38.979Z,83.31
2018-12-09T18:22:06.631Z,83.41
2018-12-09T18:24:34.278Z,82.97
2018-12-09T18:27:01.847Z,82.97
2018-12-09T18:29:29.518Z,83.60
2018-12-09T18:31:57.342Z,83.26
2018-12-09T18:34:25.361Z,83.61
2018-12-09T18:36:53.026Z,82.85
2018-12-09T18:39:20.695Z,83.07
2018-12-09T18:41:48.354Z,83.47
2018-12-09T18:44:15.996Z,83.25
2018-12-09T18:46:43.578Z,83.88
2018-12-09T18:49:11.180Z,83.51
2018-12-09T18:51:38.797Z,83.43
2018-12-09T18:54:06.456Z,83.51
2018-12-09T18:56:34.115Z,83.16
2018-12-09T18:59:01.785Z,82.82
2018-12-09T19:01:29.433Z,83.49
2018-12-09T19:03:57.104Z,82.42
2018-12-09T19:06:24.767Z,82.32
2018-12-09T19:08:52.427Z,82.15
2018-12-09T19:11:20.083Z,81.73
2018-12-09T19:13:47.719Z,81.37
2018-12-09T19:16:16.279Z,81.80
2018-12-09T19:18:43.902Z,80.88
2018-12-09T19:21:11.562Z,81.18
2018-12-09T19:23:39.232Z,80.90
2018-12-09T19:26:06.893Z,80.90
2018-12-09T19:28:34.477Z,81.06
2018-12-09T19:31:02.112Z,81.31
2018-12-09T19:33:29.767Z,81.55
2018-12-09T19:35:57.435Z,81.74
2018-12-09T19:38:25.101Z,81.92
2018-12-09T19:40:52.771Z,81.89
2018-12-09T19:43:20.437Z,83.17
2018-12-09T19:45:48.083Z,83.35
2018-12-09T19:48:15.653Z,83.81
2018-12-09T19:50:43.307Z,83.98
2018-12-09T19:53:10.971Z,83.77
2018-12-09T19:55:38.625Z,82.87
2018-12-09T19:58:06.306Z,82.73
2018-12-09T20:00:33.959Z,82.29
2018-12-09T20:03:01.577Z,81.99
2018-12-09T20:05:29.194Z,82.56
2018-12-09T20:07:56.848Z,82.21
2018-12-09T20:10:24.517Z,82.18
2018-12-09T20:12:52.171Z,83.38
2018-12-09T20:15:19.836Z,83.02
2018-12-09T20:17:47.499Z,83.31
2018-12-09T20:20:15.160Z,83.42
2018-12-09T20:22:42.828Z,83.79
2018-12-09T20:25:10.484Z,83.84
2018-12-09T20:27:38.143Z,83.23
2018-12-09T20:30:08.063Z,83.53
2018-12-09T20:32:35.755Z,83.44
2018-12-09T20:35:03.610Z,83.69
2018-12-09T20:37:31.257Z,84.22
2018-12-09T20:39:59.088Z,84.08
2018-12-09T20:42:26.788Z,84.38
2018-12-09T20:44:54.443Z,83.92
2018-12-09T20:47:22.125Z,83.85
2018-12-09T20:49:49.773Z,83.94
2018-12-09T20:52:17.645Z,84.00
2018-12-09T20:54:45.322Z,84.04
2018-12-09T20:57:12.968Z,84.45
2018-12-09T20:59:40.559Z,84.92
2018-12-09T21:02:08.209Z,85.37
2018-12-09T21:04:35.869Z,85.40
2018-12-09T21:07:03.533Z,84.83
2018-12-09T21:09:31.179Z,85.38
2018-12-09T21:11:58.830Z,85.19
2018-12-09T21:14:26.518Z,85.04
2018-12-09T21:16:54.167Z,84.47
2018-12-09T21:19:21.773Z,82.54
2018-12-09T21:21:49.351Z,81.17
2018-12-09T21:24:17.111Z,81.22
2018-12-09T21:26:44.682Z,80.97
2018-12-09T21:29:12.380Z,80.94
2018-12-09T21:31:39.956Z,79.47
2018-12-09T21:34:07.590Z,79.30
2018-12-09T21:36:35.175Z,79.40
2018-12-09T21:39:03.173Z,78.54
2018-12-09T21:41:30.791Z,78.27
2018-12-09T21:43:58.559Z,77.89
2018-12-09T21:46:26.239Z,76.59
2018-12-09T21:48:53.983Z,76.25
2018-12-09T21:51:21.658Z,76.49
2018-12-09T21:53:49.280Z,76.10
2018-12-09T21:56:16.916Z,75.84
2018-12-09T21:58:44.540Z,75.23
2018-12-09T22:01:12.204Z,74.51
2018-12-09T22:03:39.861Z,73.56
2018-12-09T22:06:09.137Z,73.11
2018-12-09T22:08:36.911Z,73.84
2018-12-09T22:11:04.600Z,72.75
2018-12-09T22:13:32.260Z,73.25
2018-12-09T22:15:59.920Z,72.37
2018-12-09T22:18:27.583Z,71.84
2018-12-09T22:20:55.247Z,71.88
2018-12-09T22:23:22.843Z,72.34
2018-12-09T22:25:50.477Z,72.00
2018-12-09T22:28:18.141Z,71.66
2018-12-09T22:30:45.787Z,71.42
2018-12-09T22:33:13.372Z,71.61
2018-12-09T22:35:41.025Z,72.00
2018-12-09T22:38:08.681Z,72.32
2018-12-09T22:40:36.281Z,72.49
2018-12-09T22:43:03.856Z,72.30
2018-12-09T22:45:31.580Z,72.98
2018-12-09T22:47:59.151Z,73.02
2018-12-09T22:50:26.797Z,73.58
2018-12-09T22:52:54.452Z,74.01
2018-12-09T22:55:22.090Z,74.13
2018-12-09T22:57:50.000Z,74.33
2018-12-09T23:00:21.437Z,74.18
2018-12-09T23:02:54.629Z,74.39
2018-12-09T23:05:22.251Z,74.69
2018-12-09T23:07:52.758Z,74.69
2018-12-09T23:10:20.586Z,75.14
2018-12-09T23:12:48.243Z,75.15
2018-12-09T23:15:15.906Z,75.08
2018-12-09T23:17:43.568Z,75.46
2018-12-09T23:20:11.232Z,75.83
2018-12-09T23:22:38.910Z,76.29
2018-12-09T23:25:06.571Z,76.67
2018-12-09T23:27:34.177Z,76.97
2018-12-09T23:30:01.769Z,77.37
2018-12-09T23:32:29.457Z,78.09
2018-12-09T23:34:57.045Z,78.56
2018-12-09T23:37:24.671Z,78.71
2018-12-09T23:39:52.344Z,79.26
2018-12-09T23:42:19.996Z,78.84
2018-12-09T23:44:47.770Z,79.22
2018-12-09T23:47:15.518Z,79.58
2018-12-09T23:49:43.101Z,79.79
2018-12-09T23:52:10.757Z,79.72
2018-12-09T23:54:38.407Z,80.09
2018-12-09T23:57:06.075Z,80.34
2018-12-09T23:59:33.738Z,80.77
